Nyona Lake, Indiana
Current Conditions -  °F | °C
As of 4:15 AM on Sunday 21 Dec 2014 (Local Time) from KRCR Reporting Station
Haze Haze  
Wind Chill: 26°   Ceiling: 5500
Heat Index: 32°   Visibility: 5mi
Dew Point: 30°   Wind: 6mph
Humidity: 93%   Direction: 180°S
Pressure: 30.28"   Gusts: NA
Location:  40.9677°N, 86.1226°W
Report Text: KRCR 210915Z AUTO 18005KT 5SM BR OVC055 00/M01 A3028 RMK AO2
Loading
Personal Weather Stations






























Interactive Weather Map New forecast layout! Learn more

10-Day Weather Forecast

Advertisements
Track Severe Weather on mobile